Time;durP1;ratioP1;P1;durP2;ratioP2;P2;SDS_P1;SDS_P2;PMS_P1;PMS_P2;Temp;Humidity;BMP_temperature;BMP_pressure;BME280_temperature;BME280_humidity;BME280_pressure;Samples;Min_cycle;Max_cycle;Signal;HPM_P1;HPM_P2
2021/01/24 00:01:56;;;;;;;42.03;31.63;;;7.10;99.90;;;;;;5109758;28;20207;-78
2021/01/24 00:04:22;;;;;;;36.80;26.70;;;7.10;99.90;;;;;;5108624;28;20187;-78
2021/01/24 00:06:48;;;;;;;43.83;28.17;;;7.10;99.90;;;;;;5108416;28;20187;-78
2021/01/24 00:09:14;;;;;;;36.20;27.47;;;7.10;99.90;;;;;;5110012;28;20613;-78
2021/01/24 00:11:39;;;;;;;41.27;30.93;;;7.10;99.90;;;;;;5110292;28;20719;-78
2021/01/24 00:14:05;;;;;;;41.40;30.33;;;7.10;99.90;;;;;;5109715;28;20432;-78
2021/01/24 00:16:31;;;;;;;38.97;31.27;;;7.00;99.90;;;;;;5109444;28;20535;-78
2021/01/24 00:18:56;;;;;;;41.13;32.73;;;6.90;99.90;;;;;;5108519;28;21074;-79
2021/01/24 00:21:22;;;;;;;43.13;31.07;;;6.90;99.90;;;;;;5106457;28;20298;-79
2021/01/24 00:23:48;;;;;;;37.60;29.73;;;6.90;99.90;;;;;;5107861;28;20184;-78
2021/01/24 00:26:13;;;;;;;43.27;30.30;;;6.80;99.90;;;;;;5109306;28;20209;-78
2021/01/24 00:28:39;;;;;;;41.03;28.93;;;6.80;99.90;;;;;;5108234;28;20232;-78
2021/01/24 00:31:05;;;;;;;43.00;31.33;;;6.60;99.90;;;;;;5109249;28;20287;-78
2021/01/24 00:33:30;;;;;;;43.13;30.53;;;6.60;99.90;;;;;;5109387;28;20655;-78
2021/01/24 00:35:56;;;;;;;38.77;27.93;;;6.70;99.90;;;;;;5108118;28;20555;-79
2021/01/24 00:38:21;;;;;;;40.10;30.33;;;6.70;99.90;;;;;;5108293;28;20586;-79
2021/01/24 00:40:47;;;;;;;37.83;28.87;;;6.70;99.90;;;;;;5107730;28;20205;-79
2021/01/24 00:43:14;;;;;;;39.10;29.60;;;6.50;99.90;;;;;;5109038;28;20247;-78
2021/01/24 00:45:39;;;;;;;38.40;25.63;;;6.50;99.90;;;;;;5107212;28;20597;-78
2021/01/24 00:48:05;;;;;;;36.27;27.93;;;6.30;99.90;;;;;;5108774;28;20203;-78
2021/01/24 00:50:31;;;;;;;36.53;26.93;;;6.30;99.90;;;;;;5108676;28;20167;-78
2021/01/24 00:52:56;;;;;;;38.03;27.50;;;6.30;99.90;;;;;;5107385;28;20415;-78
2021/01/24 00:55:23;;;;;;;36.10;26.30;;;6.30;99.90;;;;;;5109228;28;20187;-78
2021/01/24 00:57:49;;;;;;;38.22;27.20;;;6.30;99.90;;;;;;5108080;28;20227;-78
2021/01/24 01:00:15;;;;;;;39.30;25.80;;;6.20;99.90;;;;;;5107421;28;20212;-78
2021/01/24 01:02:40;;;;;;;34.38;25.33;;;6.10;99.90;;;;;;5109239;28;20172;-78
2021/01/24 01:05:07;;;;;;;33.73;26.97;;;6.00;99.90;;;;;;5108671;28;20248;-78
2021/01/24 01:07:33;;;;;;;38.42;26.45;;;6.10;99.90;;;;;;5108323;28;20164;-78
2021/01/24 01:09:58;;;;;;;38.37;27.13;;;6.00;99.90;;;;;;5105478;28;20669;-78
2021/01/24 01:12:24;;;;;;;34.73;25.20;;;6.00;99.90;;;;;;5106667;28;20400;-78
2021/01/24 01:14:50;;;;;;;33.80;26.53;;;6.00;99.90;;;;;;5107122;28;20639;-78
2021/01/24 01:17:16;;;;;;;35.13;24.50;;;6.10;99.90;;;;;;5108752;28;20172;-79
2021/01/24 01:19:41;;;;;;;48.90;32.70;;;6.10;99.90;;;;;;5106470;28;20299;-78
2021/01/24 01:22:07;;;;;;;62.20;37.57;;;6.10;99.90;;;;;;5107716;28;20685;-78
2021/01/24 01:24:33;;;;;;;73.22;40.20;;;6.20;99.90;;;;;;5107850;28;20179;-79
2021/01/24 01:26:59;;;;;;;66.87;39.00;;;6.20;99.90;;;;;;5107653;28;20534;-78
2021/01/24 01:29:25;;;;;;;41.05;29.02;;;6.20;99.90;;;;;;5108214;28;20180;-78
2021/01/24 01:31:50;;;;;;;43.27;29.47;;;6.30;99.90;;;;;;5107695;28;20179;-78
2021/01/24 01:34:16;;;;;;;57.90;34.67;;;6.20;99.90;;;;;;5106476;28;20194;-79
2021/01/24 01:36:42;;;;;;;42.23;28.97;;;6.10;99.90;;;;;;5106342;28;20186;-78
2021/01/24 01:39:07;;;;;;;36.73;28.27;;;6.10;99.90;;;;;;5106921;28;20184;-78
2021/01/24 01:41:34;;;;;;;39.53;29.87;;;6.10;99.90;;;;;;5107033;28;20199;-79
2021/01/24 01:44:02;;;;;;;38.40;27.77;;;6.00;99.90;;;;;;5108131;28;20180;-79
2021/01/24 01:46:28;;;;;;;37.85;29.20;;;6.00;99.90;;;;;;5107073;28;20188;-79
2021/01/24 01:48:55;;;;;;;43.90;30.40;;;5.90;99.90;;;;;;5107514;28;20647;-79
2021/01/24 01:51:20;;;;;;;34.40;27.27;;;6.00;99.90;;;;;;5108406;28;20282;-79
2021/01/24 01:53:47;;;;;;;36.67;27.43;;;5.90;99.90;;;;;;5107876;28;20297;-79
2021/01/24 01:56:14;;;;;;;40.90;27.90;;;5.90;99.90;;;;;;5107347;28;20224;-78
2021/01/24 01:58:41;;;;;;;34.22;25.80;;;5.80;99.90;;;;;;5106859;28;20186;-78
2021/01/24 02:01:33;;;;;;;33.90;26.05;;;5.70;99.90;;;;;;5107677;28;20187;-78
2021/01/24 02:04:14;;;;;;;35.65;25.85;;;5.70;99.90;;;;;;5100857;28;20210;-79
2021/01/24 02:06:43;;;;;;;35.20;25.33;;;5.70;99.90;;;;;;5106075;28;20267;-79
2021/01/24 02:09:12;;;;;;;36.17;25.00;;;5.70;99.90;;;;;;5107703;28;20190;-79
2021/01/24 02:12:02;;;;;;;30.60;23.52;;;5.70;99.90;;;;;;5107905;28;20179;-78
2021/01/24 02:14:38;;;;;;;34.17;24.20;;;5.70;99.90;;;;;;5105698;28;20199;-79
2021/01/24 02:17:08;;;;;;;33.58;23.98;;;5.70;99.90;;;;;;5107517;28;20178;-78
2021/01/24 02:19:43;;;;;;;31.02;23.63;;;5.70;99.90;;;;;;5107840;28;20184;-78
2021/01/24 02:22:12;;;;;;;29.58;24.08;;;5.60;99.90;;;;;;5106130;28;20976;-78
2021/01/24 02:24:47;;;;;;;32.40;22.75;;;5.60;99.90;;;;;;5106507;28;20183;-78
2021/01/24 02:27:19;;;;;;;34.08;22.73;;;5.60;99.90;;;;;;5107848;28;20669;-78
2021/01/24 02:30:03;;;;;;;31.50;23.20;;;5.60;99.90;;;;;;5107112;28;20229;-78
2021/01/24 02:32:29;;;;;;;36.10;23.50;;;5.60;99.90;;;;;;5106225;28;20164;-78
2021/01/24 02:34:57;;;;;;;32.25;22.75;;;5.60;99.90;;;;;;5107482;28;20194;-78
2021/01/24 02:37:24;;;;;;;31.50;23.30;;;5.50;99.90;;;;;;5107433;28;20179;-78
2021/01/24 02:39:51;;;;;;;29.50;21.45;;;5.50;99.90;;;;;;5108214;28;20258;-78
2021/01/24 02:42:19;;;;;;;34.28;23.08;;;5.50;99.90;;;;;;5107130;28;20207;-78
2021/01/24 02:44:45;;;;;;;32.20;22.38;;;5.50;99.90;;;;;;5111940;28;20179;-78
2021/01/24 02:47:12;;;;;;;26.88;21.35;;;5.50;99.90;;;;;;5110533;28;20242;-78
2021/01/24 02:49:41;;;;;;;27.35;22.10;;;5.40;99.90;;;;;;5111555;27;20627;-78
2021/01/24 02:52:08;;;;;;;29.55;21.33;;;5.40;99.90;;;;;;5111556;28;20171;-78
2021/01/24 02:54:36;;;;;;;29.27;22.27;;;5.40;99.90;;;;;;5112516;28;20582;-78
2021/01/24 02:57:02;;;;;;;31.40;21.45;;;5.40;99.90;;;;;;5111351;28;20330;-78
2021/01/24 02:59:28;;;;;;;31.95;23.83;;;5.40;99.90;;;;;;5112086;28;20190;-78
2021/01/24 03:01:54;;;;;;;33.97;23.03;;;5.30;99.90;;;;;;5111291;28;20555;-78
2021/01/24 03:04:20;;;;;;;30.50;21.73;;;5.30;99.90;;;;;;5110648;28;20474;-78
2021/01/24 03:06:45;;;;;;;31.13;21.33;;;5.20;99.90;;;;;;5112794;28;20236;-79
2021/01/24 03:09:12;;;;;;;27.43;22.13;;;5.30;99.90;;;;;;5111631;28;20184;-79
2021/01/24 03:11:41;;;;;;;28.17;22.08;;;5.30;99.90;;;;;;5110825;28;20262;-79
2021/01/24 03:14:10;;;;;;;40.60;27.73;;;5.20;99.90;;;;;;5110904;28;20216;-79
2021/01/24 03:16:38;;;;;;;45.85;31.50;;;5.20;99.90;;;;;;5109686;28;20190;-79
2021/01/24 03:19:07;;;;;;;52.78;32.70;;;5.20;99.90;;;;;;5109418;28;20186;-79
2021/01/24 03:21:35;;;;;;;58.80;35.25;;;5.20;99.90;;;;;;5109856;28;20206;-79
2021/01/24 03:24:03;;;;;;;40.70;28.70;;;5.20;99.90;;;;;;5108903;28;20676;-79
2021/01/24 03:26:29;;;;;;;36.35;25.05;;;5.20;99.90;;;;;;5110496;28;20247;-79
2021/01/24 03:28:55;;;;;;;35.67;25.27;;;5.20;99.90;;;;;;5110595;28;20185;-79
2021/01/24 03:31:22;;;;;;;29.03;23.50;;;5.20;99.90;;;;;;5109237;28;20179;-79
2021/01/24 03:33:48;;;;;;;26.13;19.77;;;5.20;99.90;;;;;;5110640;28;20180;-78
2021/01/24 03:36:14;;;;;;;27.95;21.10;;;5.20;99.90;;;;;;5108850;28;20509;-79
2021/01/24 03:38:39;;;;;;;41.80;27.97;;;5.20;99.90;;;;;;5110242;28;20201;-79
2021/01/24 03:41:06;;;;;;;41.33;27.03;;;5.20;99.90;;;;;;5110051;28;20199;-79
2021/01/24 03:43:32;;;;;;;44.95;29.35;;;5.20;99.90;;;;;;5110371;28;20203;-79
2021/01/24 03:45:57;;;;;;;33.53;22.57;;;5.20;99.90;;;;;;5109925;28;20207;-78
2021/01/24 03:48:23;;;;;;;22.60;17.10;;;5.10;99.90;;;;;;5108407;28;20180;-78
2021/01/24 03:50:49;;;;;;;38.30;23.77;;;5.00;99.90;;;;;;5110260;28;20176;-78
2021/01/24 03:53:14;;;;;;;45.50;23.80;;;5.10;99.90;;;;;;5109820;28;20176;-79
2021/01/24 03:55:40;;;;;;;42.67;27.00;;;5.10;99.90;;;;;;5109076;28;20175;-79
2021/01/24 03:58:06;;;;;;;73.03;39.90;;;5.10;99.90;;;;;;5110168;28;20286;-79
2021/01/24 04:00:31;;;;;;;93.63;42.77;;;5.20;99.90;;;;;;5110271;28;20609;-79
2021/01/24 04:02:57;;;;;;;64.03;32.53;;;5.20;99.90;;;;;;5110309;28;20183;-78
2021/01/24 04:05:23;;;;;;;94.10;43.03;;;5.20;99.90;;;;;;5108951;28;20213;-79
2021/01/24 04:07:49;;;;;;;69.27;36.57;;;5.20;99.90;;;;;;5108844;28;20179;-78
2021/01/24 04:10:15;;;;;;;77.20;37.70;;;5.10;99.90;;;;;;5108564;28;20585;-79
2021/01/24 04:12:40;;;;;;;79.47;40.50;;;5.10;99.90;;;;;;5108185;28;20222;-79
2021/01/24 04:15:07;;;;;;;41.90;25.87;;;5.10;99.90;;;;;;5109885;28;20882;-79
2021/01/24 04:17:32;;;;;;;47.70;28.35;;;5.10;99.90;;;;;;5108604;28;20175;-79
2021/01/24 04:19:58;;;;;;;52.50;32.37;;;5.00;99.90;;;;;;5109676;28;20232;-78
2021/01/24 04:22:24;;;;;;;24.97;16.87;;;5.00;99.90;;;;;;5108047;28;20707;-78
2021/01/24 04:24:49;;;;;;;23.40;15.20;;;4.90;99.90;;;;;;5108852;28;20247;-78
2021/01/24 04:27:15;;;;;;;23.73;14.60;;;4.90;99.90;;;;;;5109383;28;20168;-78
2021/01/24 04:29:41;;;;;;;24.40;15.90;;;4.80;99.90;;;;;;5109666;28;20595;-78
2021/01/24 04:32:06;;;;;;;22.47;16.17;;;4.90;99.90;;;;;;5108241;28;20182;-78
2021/01/24 04:34:32;;;;;;;20.50;14.83;;;4.90;99.90;;;;;;5108245;28;20184;-78
2021/01/24 04:36:58;;;;;;;19.53;15.10;;;4.90;99.90;;;;;;5109520;28;20236;-78
2021/01/24 04:39:23;;;;;;;22.23;15.07;;;4.90;99.90;;;;;;5108821;28;20211;-78
2021/01/24 04:41:50;;;;;;;19.53;14.33;;;4.80;99.90;;;;;;5108377;28;20200;-78
2021/01/24 04:44:16;;;;;;;19.60;15.85;;;4.80;99.90;;;;;;5109417;28;20636;-78
2021/01/24 04:46:42;;;;;;;22.83;16.33;;;4.80;99.90;;;;;;5109521;28;20176;-78
2021/01/24 04:49:08;;;;;;;19.30;14.18;;;4.80;99.90;;;;;;5109523;28;20211;-78
2021/01/24 04:51:34;;;;;;;40.10;21.50;;;4.80;99.90;;;;;;5109223;28;20207;-78
2021/01/24 04:54:01;;;;;;;53.37;28.60;;;4.80;99.90;;;;;;5109522;28;20916;-78
2021/01/24 04:56:28;;;;;;;36.70;21.27;;;4.80;99.90;;;;;;5107539;28;20826;-78
2021/01/24 04:58:54;;;;;;;19.70;13.80;;;4.80;99.90;;;;;;5108897;28;20506;-78
2021/01/24 05:01:23;;;;;;;19.50;14.30;;;4.80;99.90;;;;;;5108954;28;20203;-78
2021/01/24 05:03:49;;;;;;;18.77;13.38;;;4.80;99.90;;;;;;5107567;28;20180;-78
2021/01/24 05:06:15;;;;;;;16.90;13.30;;;4.80;99.90;;;;;;5107742;27;20176;-78
2021/01/24 05:08:45;;;;;;;52.30;27.97;;;4.80;99.90;;;;;;5109216;28;20403;-79
2021/01/24 05:11:11;;;;;;;48.95;28.67;;;4.80;99.90;;;;;;5109013;28;20266;-78
2021/01/24 05:13:37;;;;;;;34.80;23.73;;;4.80;99.90;;;;;;5107674;28;20186;-78
2021/01/24 05:16:05;;;;;;;32.90;22.83;;;4.70;99.90;;;;;;5108067;28;20631;-78
2021/01/24 05:18:31;;;;;;;22.88;17.63;;;4.60;99.90;;;;;;5106969;28;20207;-78
2021/01/24 05:20:58;;;;;;;29.23;18.95;;;4.50;99.90;;;;;;5107313;28;20231;-78
2021/01/24 05:23:24;;;;;;;43.55;27.15;;;4.60;99.90;;;;;;5108270;28;20171;-78
2021/01/24 05:25:54;;;;;;;39.85;24.77;;;4.50;99.90;;;;;;5106597;28;20267;-78
2021/01/24 05:28:30;;;;;;;37.72;25.75;;;4.60;99.90;;;;;;5107499;28;20168;-78
2021/01/24 05:31:04;;;;;;;17.55;13.57;;;4.50;99.90;;;;;;5106884;28;20639;-78
2021/01/24 05:33:29;;;;;;;17.98;14.35;;;4.40;99.90;;;;;;5108391;28;20176;-78
2021/01/24 05:35:55;;;;;;;30.47;20.77;;;4.50;99.90;;;;;;5108412;28;20179;-78
2021/01/24 05:38:26;;;;;;;44.33;25.73;;;4.50;99.90;;;;;;5108124;27;20588;-79
2021/01/24 05:40:52;;;;;;;29.77;21.42;;;4.50;99.90;;;;;;5108441;28;20199;-79
2021/01/24 05:43:18;;;;;;;32.73;20.10;;;4.50;99.90;;;;;;5106683;28;20311;-79
2021/01/24 05:45:44;;;;;;;21.13;13.80;;;4.50;99.90;;;;;;5104982;28;20537;-79
2021/01/24 05:48:10;;;;;;;19.10;14.35;;;4.50;99.90;;;;;;5107572;28;20164;-79
2021/01/24 05:50:36;;;;;;;20.38;13.43;;;4.50;99.90;;;;;;5106266;28;20179;-79
2021/01/24 05:53:05;;;;;;;16.40;12.73;;;4.50;99.90;;;;;;5107776;28;20721;-78
2021/01/24 05:55:33;;;;;;;19.60;14.68;;;4.60;99.90;;;;;;5107924;28;20195;-78
2021/01/24 05:58:13;;;;;;;15.65;12.45;;;4.70;99.90;;;;;;5107684;28;20188;-79
2021/01/24 06:00:42;;;;;;;16.85;12.93;;;4.60;99.90;;;;;;5107364;28;20203;-79
2021/01/24 06:03:08;;;;;;;14.63;11.68;;;4.70;99.90;;;;;;5105796;28;20194;-79
2021/01/24 06:05:34;;;;;;;13.57;10.38;;;4.80;99.90;;;;;;5107702;28;20168;-79
2021/01/24 06:08:00;;;;;;;13.88;10.88;;;4.90;99.90;;;;;;5107413;28;20303;-79
2021/01/24 06:10:26;;;;;;;13.38;10.55;;;4.80;99.90;;;;;;5108285;28;20186;-79
2021/01/24 06:12:53;;;;;;;13.43;9.90;;;5.00;99.90;;;;;;5107576;28;20175;-79
2021/01/24 06:15:23;;;;;;;13.85;8.88;;;5.00;99.90;;;;;;5106665;28;20636;-79
2021/01/24 06:17:52;;;;;;;12.90;9.38;;;5.10;99.90;;;;;;5105143;28;20178;-79
2021/01/24 06:20:20;;;;;;;13.38;9.18;;;5.20;99.90;;;;;;5107305;28;20183;-79
2021/01/24 06:22:56;;;;;;;16.55;12.98;;;5.40;99.90;;;;;;5107159;28;20681;-79
2021/01/24 06:25:26;;;;;;;12.32;11.02;;;5.40;99.90;;;;;;5107630;28;20329;-79
2021/01/24 06:28:04;;;;;;;12.68;10.13;;;5.50;99.90;;;;;;5107298;28;20164;-78
2021/01/24 06:30:30;;;;;;;12.80;9.15;;;5.60;99.90;;;;;;5107617;28;20167;-79
2021/01/24 06:33:10;;;;;;;16.60;13.80;;;5.70;99.90;;;;;;5107242;28;20512;-79
2021/01/24 06:35:44;;;;;;;23.42;14.38;;;5.70;99.90;;;;;;5107202;28;20632;-79
2021/01/24 06:38:10;;;;;;;41.05;29.08;;;5.80;99.90;;;;;;5107161;28;20164;-79
2021/01/24 06:40:43;;;;;;;30.30;22.60;;;5.80;99.90;;;;;;5107200;28;20586;-79
2021/01/24 06:43:09;;;;;;;19.77;16.50;;;5.90;99.90;;;;;;5107416;28;20160;-79
2021/01/24 06:45:39;;;;;;;13.57;11.10;;;5.90;99.90;;;;;;5107602;28;20178;-79
2021/01/24 06:48:05;;;;;;;12.77;9.73;;;5.90;99.90;;;;;;5106883;28;20411;-78
2021/01/24 06:50:49;;;;;;;15.18;10.20;;;5.90;99.90;;;;;;5104649;28;20176;-79
2021/01/24 06:53:18;;;;;;;13.18;9.45;;;5.90;99.90;;;;;;5107230;28;20168;-79
2021/01/24 06:56:00;;;;;;;10.82;8.77;;;5.80;99.90;;;;;;5106820;28;20176;-79
2021/01/24 06:58:46;;;;;;;14.43;9.43;;;5.80;99.90;;;;;;5107439;28;20578;-79
2021/01/24 07:01:33;;;;;;;11.45;8.27;;;5.90;99.90;;;;;;5107517;28;20596;-79
2021/01/24 07:04:20;;;;;;;8.50;7.40;;;5.90;99.90;;;;;;5106837;28;20199;-79
2021/01/24 07:06:50;;;;;;;10.20;8.52;;;5.90;99.90;;;;;;5106382;28;20197;-78
2021/01/24 07:09:27;;;;;;;11.60;8.85;;;6.00;99.90;;;;;;5105924;28;20188;-79
2021/01/24 07:12:00;;;;;;;15.65;9.90;;;6.00;99.90;;;;;;5106959;28;20695;-79
2021/01/24 07:14:32;;;;;;;15.77;12.40;;;6.10;99.90;;;;;;5106543;28;20180;-79
2021/01/24 07:17:12;;;;;;;14.75;11.85;;;6.10;99.90;;;;;;5106279;28;20180;-79
2021/01/24 07:19:45;;;;;;;16.65;12.88;;;6.10;99.90;;;;;;5106034;28;20221;-79
2021/01/24 07:22:11;;;;;;;11.43;10.23;;;6.20;99.90;;;;;;5105951;28;20621;-79
2021/01/24 07:24:38;;;;;;;10.05;8.95;;;6.20;99.90;;;;;;5106816;28;20183;-79
2021/01/24 07:27:12;;;;;;;12.07;8.57;;;6.30;99.90;;;;;;5106814;28;20221;-79
2021/01/24 07:29:38;;;;;;;12.68;8.38;;;6.30;99.90;;;;;;5108365;28;20188;-79
2021/01/24 07:32:08;;;;;;;38.87;29.03;;;6.30;99.90;;;;;;5109058;28;20182;-79
2021/01/24 07:34:35;;;;;;;28.00;19.83;;;6.20;99.90;;;;;;5111120;28;20431;-79
2021/01/24 07:37:01;;;;;;;20.83;16.48;;;6.30;99.90;;;;;;5110295;28;20168;-79
2021/01/24 07:39:29;;;;;;;18.90;13.57;;;6.30;99.90;;;;;;5107910;28;20190;-79
2021/01/24 07:41:55;;;;;;;19.50;15.15;;;6.40;99.90;;;;;;5109149;28;20434;-79
2021/01/24 07:44:20;;;;;;;15.45;10.68;;;6.50;99.90;;;;;;5097125;28;20216;-79
2021/01/24 07:46:46;;;;;;;49.53;37.97;;;6.50;99.90;;;;;;5089813;28;20200;-78
2021/01/24 07:49:12;;;;;;;33.30;27.47;;;6.60;99.90;;;;;;5088561;28;20181;-78
2021/01/24 07:51:37;;;;;;;29.47;25.90;;;6.50;99.90;;;;;;5088413;28;20207;-78
2021/01/24 07:54:04;;;;;;;22.07;19.80;;;6.60;99.90;;;;;;5089250;28;20557;-78
2021/01/24 07:56:29;;;;;;;11.68;9.20;;;6.60;99.90;;;;;;5088891;28;20698;-79
2021/01/24 07:58:56;;;;;;;25.67;20.63;;;6.60;99.90;;;;;;5090409;28;20184;-79
2021/01/24 08:01:22;;;;;;;21.55;18.25;;;6.70;99.90;;;;;;5090313;28;20192;-79
2021/01/24 08:03:48;;;;;;;26.52;20.80;;;6.70;99.90;;;;;;5089720;28;20176;-79
2021/01/24 08:06:14;;;;;;;36.93;30.00;;;6.80;99.90;;;;;;5089491;28;20722;-79
2021/01/24 08:08:41;;;;;;;16.88;12.38;;;6.80;99.90;;;;;;5089798;28;20180;-79
2021/01/24 08:11:08;;;;;;;13.73;10.82;;;7.00;99.90;;;;;;5088688;28;20180;-79
2021/01/24 08:13:35;;;;;;;14.00;10.77;;;7.20;99.80;;;;;;5088667;28;20185;-79
2021/01/24 08:16:06;;;;;;;13.75;12.15;;;7.30;99.60;;;;;;5087871;28;20320;-79
2021/01/24 08:18:35;;;;;;;17.00;12.13;;;7.50;99.20;;;;;;5088269;28;20226;-78
2021/01/24 08:21:02;;;;;;;49.88;44.40;;;7.60;99.30;;;;;;5089221;28;20797;-79
2021/01/24 08:23:28;;;;;;;24.60;17.80;;;7.80;99.00;;;;;;5089353;28;20264;-79
2021/01/24 08:25:57;;;;;;;20.63;14.88;;;7.90;99.20;;;;;;5089028;28;20183;-79
2021/01/24 08:28:25;;;;;;;19.20;13.73;;;7.90;99.10;;;;;;5087496;28;20263;-78
2021/01/24 08:30:51;;;;;;;10.30;8.05;;;7.80;98.90;;;;;;5089573;28;20181;-79
2021/01/24 08:33:19;;;;;;;11.60;10.48;;;7.70;98.80;;;;;;5087619;28;20664;-79
2021/01/24 08:35:47;;;;;;;14.88;8.10;;;7.80;98.30;;;;;;5102448;28;20271;-79
2021/01/24 08:38:13;;;;;;;13.88;10.80;;;7.90;98.50;;;;;;5109038;28;20559;-79
2021/01/24 08:40:40;;;;;;;14.10;9.90;;;7.90;98.60;;;;;;5108037;28;20195;-79
2021/01/24 08:43:07;;;;;;;11.15;8.63;;;8.00;98.10;;;;;;5108194;28;20176;-79
2021/01/24 08:45:34;;;;;;;13.98;11.52;;;8.00;98.10;;;;;;5107647;28;20176;-79
2021/01/24 08:48:04;;;;;;;20.27;11.77;;;8.10;97.90;;;;;;5108774;28;20178;-79
2021/01/24 08:50:37;;;;;;;21.30;14.57;;;8.10;97.40;;;;;;5106836;28;20230;-79
2021/01/24 08:53:06;;;;;;;26.92;13.60;;;8.00;98.00;;;;;;5107824;28;20172;-79
2021/01/24 08:55:49;;;;;;;36.42;17.58;;;8.10;98.00;;;;;;5109450;28;20660;-77
2021/01/24 08:58:28;;;;;;;24.65;14.38;;;8.20;97.20;;;;;;5107218;28;20234;-77
2021/01/24 09:01:09;;;;;;;17.20;10.98;;;8.30;97.70;;;;;;5107782;28;20207;-76
2021/01/24 09:03:35;;;;;;;25.45;14.50;;;8.40;97.70;;;;;;5109158;28;20172;-77
2021/01/24 09:06:22;;;;;;;25.63;12.93;;;8.70;97.40;;;;;;5106363;28;20172;-78
2021/01/24 09:08:52;;;;;;;30.25;16.55;;;8.90;97.00;;;;;;5105580;28;20427;-77
2021/01/24 09:11:19;;;;;;;47.90;31.88;;;9.20;96.00;;;;;;5108178;28;20211;-77
2021/01/24 09:13:45;;;;;;;67.60;38.80;;;9.60;95.40;;;;;;5107333;28;20999;-77
2021/01/24 09:16:11;;;;;;;28.07;21.10;;;10.10;95.20;;;;;;5106892;28;20206;-77
2021/01/24 09:18:36;;;;;;;15.93;12.60;;;10.30;93.70;;;;;;5107012;28;20604;-77
2021/01/24 09:21:05;;;;;;;41.40;37.13;;;10.40;93.30;;;;;;5108073;28;20459;-77
2021/01/24 09:23:31;;;;;;;8.65;6.90;;;10.40;93.40;;;;;;5108533;28;20274;-77
2021/01/24 09:25:57;;;;;;;8.07;5.40;;;10.70;92.70;;;;;;5108279;28;20247;-77
2021/01/24 09:28:24;;;;;;;21.60;19.40;;;11.00;92.30;;;;;;5106165;28;20611;-77
2021/01/24 09:30:53;;;;;;;21.80;19.80;;;10.90;92.20;;;;;;5108233;28;20627;-77
2021/01/24 09:33:22;;;;;;;8.68;7.78;;;10.80;92.20;;;;;;5105468;28;20216;-77
2021/01/24 09:35:48;;;;;;;7.60;5.20;;;11.20;92.20;;;;;;5108194;28;20196;-77
2021/01/24 09:38:13;;;;;;;12.27;7.00;;;11.70;91.00;;;;;;5107984;28;20740;-77
2021/01/24 09:40:39;;;;;;;7.97;5.93;;;11.70;90.70;;;;;;5106668;28;20211;-77
2021/01/24 09:43:04;;;;;;;6.17;5.10;;;11.50;91.00;;;;;;5107875;28;20176;-79
2021/01/24 09:45:30;;;;;;;6.07;5.47;;;11.50;91.40;;;;;;5108061;28;20696;-79
2021/01/24 09:47:56;;;;;;;7.63;5.17;;;11.60;91.60;;;;;;5107963;28;20168;-79
2021/01/24 09:50:23;;;;;;;6.67;4.90;;;12.20;89.70;;;;;;5104829;28;20764;-79
2021/01/24 09:52:49;;;;;;;7.80;6.40;;;12.50;90.00;;;;;;5107660;28;20412;-78
2021/01/24 09:55:15;;;;;;;7.50;4.90;;;12.60;88.20;;;;;;5106284;28;20420;-78
2021/01/24 09:57:41;;;;;;;5.33;4.03;;;12.50;86.90;;;;;;5106454;28;20474;-78
2021/01/24 10:00:07;;;;;;;4.93;4.43;;;13.00;86.90;;;;;;5107211;28;20195;-78
2021/01/24 10:02:33;;;;;;;6.07;4.70;;;13.20;86.70;;;;;;5107488;28;20203;-79
2021/01/24 10:04:59;;;;;;;6.63;4.73;;;13.30;84.40;;;;;;5106243;28;20416;-79
2021/01/24 10:07:24;;;;;;;5.63;4.50;;;13.20;86.50;;;;;;5107245;28;20176;-79
2021/01/24 10:09:50;;;;;;;7.47;4.83;;;13.30;86.80;;;;;;5106073;28;20624;-79
2021/01/24 10:12:16;;;;;;;5.10;3.90;;;13.30;86.30;;;;;;5107669;28;20183;-79
2021/01/24 10:14:41;;;;;;;4.77;3.97;;;13.00;86.20;;;;;;5107817;28;20725;-79
2021/01/24 10:17:07;;;;;;;4.43;2.93;;;12.80;88.50;;;;;;5107218;28;20188;-79
2021/01/24 10:19:33;;;;;;;2.53;2.30;;;12.90;86.30;;;;;;5107549;28;20259;-78
2021/01/24 10:21:58;;;;;;;6.67;3.77;;;13.10;84.70;;;;;;5106063;28;20671;-78
2021/01/24 10:24:24;;;;;;;3.70;2.53;;;12.70;88.10;;;;;;5105315;28;20183;-78
2021/01/24 10:26:50;;;;;;;2.47;1.83;;;12.60;86.50;;;;;;5107148;28;20182;-78
2021/01/24 10:29:15;;;;;;;2.27;1.30;;;12.70;86.30;;;;;;5107045;28;20174;-78
2021/01/24 10:31:41;;;;;;;2.33;1.03;;;12.50;86.20;;;;;;5107045;28;20616;-78
2021/01/24 10:34:07;;;;;;;1.47;1.37;;;12.60;86.40;;;;;;5106440;28;20175;-78
2021/01/24 10:36:32;;;;;;;2.40;2.13;;;12.40;86.10;;;;;;5107013;28;20191;-78
2021/01/24 10:38:58;;;;;;;1.80;1.30;;;12.30;86.70;;;;;;5105875;28;20228;-78
2021/01/24 10:41:24;;;;;;;2.20;2.00;;;12.50;87.30;;;;;;5106359;28;20207;-78
2021/01/24 10:43:49;;;;;;;6.03;2.00;;;12.50;87.60;;;;;;5107424;28;20216;-78
2021/01/24 10:46:15;;;;;;;3.20;1.60;;;12.30;87.50;;;;;;5106628;28;20210;-78
2021/01/24 10:48:42;;;;;;;2.37;1.60;;;12.20;87.30;;;;;;5107216;28;20203;-78
2021/01/24 10:51:08;;;;;;;3.37;1.13;;;12.10;87.50;;;;;;5107600;28;20213;-78
2021/01/24 10:53:34;;;;;;;4.23;3.30;;;12.40;86.10;;;;;;5106952;28;20447;-78
2021/01/24 10:56:00;;;;;;;12.30;8.20;;;12.60;86.40;;;;;;5104628;28;20315;-79
2021/01/24 10:58:25;;;;;;;4.63;2.20;;;12.90;84.70;;;;;;5106532;28;20221;-78
2021/01/24 11:00:53;;;;;;;3.57;1.70;;;13.00;84.60;;;;;;5105690;28;20455;-79
2021/01/24 11:03:19;;;;;;;2.00;1.30;;;13.10;84.70;;;;;;5105889;28;20647;-78
2021/01/24 11:05:44;;;;;;;16.43;14.80;;;13.10;83.10;;;;;;5110969;28;20420;-78
2021/01/24 11:08:10;;;;;;;2.40;1.23;;;13.30;84.10;;;;;;5109192;28;20232;-78
2021/01/24 11:10:35;;;;;;;3.43;1.47;;;13.20;82.60;;;;;;5109625;28;20240;-78
2021/01/24 11:13:01;;;;;;;15.37;13.23;;;13.10;82.80;;;;;;5111067;28;20965;-78
2021/01/24 11:15:31;;;;;;;5.83;2.50;;;13.10;83.30;;;;;;5110331;28;20245;-78
2021/01/24 11:17:56;;;;;;;10.90;9.80;;;13.10;83.20;;;;;;5110195;28;20183;-78
2021/01/24 11:20:22;;;;;;;23.40;21.00;;;13.30;83.90;;;;;;5109924;28;20866;-78
2021/01/24 11:22:48;;;;;;;5.60;5.00;;;12.60;85.10;;;;;;5110780;27;20411;-78
2021/01/24 11:25:14;;;;;;;3.50;1.80;;;12.50;85.00;;;;;;5110864;28;20396;-78
2021/01/24 11:27:39;;;;;;;5.40;4.83;;;12.60;86.20;;;;;;5109822;28;20172;-78
2021/01/24 11:30:09;;;;;;;2.60;2.40;;;12.30;85.90;;;;;;5109752;28;20572;-78
2021/01/24 11:32:35;;;;;;;4.23;3.10;;;12.30;86.60;;;;;;5110517;28;20595;-78
2021/01/24 11:35:01;;;;;;;7.30;6.60;;;12.30;87.30;;;;;;5110460;28;20443;-78
2021/01/24 11:37:26;;;;;;;2.40;1.60;;;12.10;87.70;;;;;;5108454;28;20548;-78
2021/01/24 11:39:52;;;;;;;3.53;3.23;;;12.20;87.20;;;;;;5110242;28;20416;-78
2021/01/24 11:42:18;;;;;;;3.90;2.23;;;12.10;87.70;;;;;;5108149;28;20740;-78
2021/01/24 11:44:43;;;;;;;4.13;3.23;;;11.80;88.20;;;;;;5108624;28;20175;-78
2021/01/24 11:47:09;;;;;;;3.27;1.97;;;11.80;88.10;;;;;;5109830;28;20178;-78
2021/01/24 11:49:35;;;;;;;1.60;1.50;;;11.80;87.60;;;;;;5110468;28;20286;-78
2021/01/24 11:52:00;;;;;;;3.87;3.50;;;11.60;88.60;;;;;;5110192;28;20180;-78
2021/01/24 11:54:26;;;;;;;4.13;2.73;;;11.60;90.10;;;;;;5109611;28;20636;-78
2021/01/24 11:56:51;;;;;;;3.27;2.00;;;12.00;89.70;;;;;;5109968;28;20235;-78
2021/01/24 11:59:17;;;;;;;3.90;2.20;;;11.80;88.70;;;;;;5109356;28;20851;-78
2021/01/24 12:01:43;;;;;;;2.80;1.73;;;12.00;87.70;;;;;;5108150;28;20267;-78
2021/01/24 12:04:08;;;;;;;5.53;2.57;;;12.20;87.50;;;;;;5109786;28;20207;-78
2021/01/24 12:06:34;;;;;;;1.63;1.20;;;12.30;88.20;;;;;;5109579;28;20259;-78
2021/01/24 12:09:00;;;;;;;2.93;1.40;;;12.10;87.50;;;;;;5109399;28;20184;-78
2021/01/24 12:11:25;;;;;;;2.80;1.90;;;12.20;86.60;;;;;;5109447;28;20176;-78
2021/01/24 12:13:51;;;;;;;2.50;2.00;;;12.00;87.90;;;;;;5109521;28;20207;-78
2021/01/24 12:16:17;;;;;;;4.33;1.70;;;12.00;87.60;;;;;;5108404;28;20207;-78
2021/01/24 12:18:43;;;;;;;3.40;1.20;;;12.10;88.10;;;;;;5109466;27;20203;-78
2021/01/24 12:21:08;;;;;;;6.03;2.83;;;12.10;87.10;;;;;;5109228;28;20215;-78
2021/01/24 12:23:34;;;;;;;1.63;1.10;;;12.10;87.20;;;;;;5108191;28;20760;-78
2021/01/24 12:26:00;;;;;;;1.53;1.40;;;12.00;87.50;;;;;;5109764;28;20198;-78
2021/01/24 12:28:25;;;;;;;2.87;1.77;;;12.00;88.50;;;;;;5108366;28;20191;-78
2021/01/24 12:30:51;;;;;;;2.17;1.70;;;12.10;88.00;;;;;;5109349;28;20538;-78
2021/01/24 12:33:17;;;;;;;3.10;2.90;;;12.00;88.80;;;;;;5107148;28;20215;-78
2021/01/24 12:35:42;;;;;;;2.67;1.70;;;12.10;88.50;;;;;;5107693;28;20530;-78
2021/01/24 12:38:08;;;;;;;3.60;2.57;;;12.10;89.80;;;;;;5108564;28;20628;-78
2021/01/24 12:40:34;;;;;;;4.63;2.40;;;12.10;87.40;;;;;;5107691;28;20253;-78
2021/01/24 12:43:00;;;;;;;4.70;3.00;;;12.10;87.80;;;;;;5107782;28;20184;-78